Terminal Aerodrome Forecast
Issued by NWS

Home | Current Version | Previous Version | Graphics & Text | Print | Product List | Glossary On
Versions: 1 2 3 4 5 6 7 8 9 10 11 12 13 14 15 16 17 18
623
FTUS43 KMPX 270927 AAB
TAFRNH
TAF AMD
KRNH 270927Z 2709/2806 36005KT P6SM BKN006 OVC015
      TEMPO 2710/2712 4SM -SHRA BR SCT006 OVC015
     FM271500 02006KT P6SM BKN025 OVC090
     FM271800 02007KT P6SM SCT035 BKN100
     FM272000 04005KT P6SM BKN250=

USA.gov is the U.S. government's official web portal to all federal, state and local government web resources and services.